createdAt,value
2022-10-19T00:00:15.163Z,0.00
2022-10-19T00:01:15.529Z,0.00
2022-10-19T00:02:15.977Z,0.00
2022-10-19T00:03:19.410Z,0.00
2022-10-19T00:04:17.376Z,0.00
2022-10-19T00:05:16.692Z,0.00
2022-10-19T00:06:17.406Z,0.00
2022-10-19T00:07:17.305Z,0.00
2022-10-19T00:08:17.641Z,0.00
2022-10-19T00:09:17.897Z,0.00
2022-10-19T00:10:18.150Z,0.00
2022-10-19T00:11:18.504Z,0.00
2022-10-19T00:12:18.804Z,0.00
2022-10-19T00:13:19.145Z,0.00
2022-10-19T00:14:19.456Z,0.00
2022-10-19T00:15:19.791Z,0.00
2022-10-19T00:16:20.190Z,0.00
2022-10-19T00:17:20.418Z,0.00
2022-10-19T00:18:20.688Z,0.00
2022-10-19T00:19:21.102Z,0.00
2022-10-19T00:20:21.380Z,0.00
2022-10-19T00:21:21.709Z,0.00
2022-10-19T00:22:22.039Z,0.00
2022-10-19T00:23:22.337Z,0.00
2022-10-19T00:24:22.704Z,0.00
2022-10-19T00:25:22.993Z,0.00
2022-10-19T00:26:23.342Z,0.00
2022-10-19T00:27:23.669Z,0.00
2022-10-19T00:28:23.970Z,0.00
2022-10-19T00:29:24.334Z,0.00
2022-10-19T00:30:24.653Z,0.00
2022-10-19T00:31:24.842Z,0.00
2022-10-19T00:32:25.211Z,0.00
2022-10-19T00:33:25.537Z,0.00
2022-10-19T00:34:25.901Z,0.00
2022-10-19T00:35:26.206Z,0.00
2022-10-19T00:36:26.506Z,0.00
2022-10-19T00:37:26.895Z,0.00
2022-10-19T00:38:27.142Z,0.00
2022-10-19T00:39:27.470Z,0.00
2022-10-19T00:40:27.802Z,0.00
2022-10-19T00:41:28.145Z,0.00
2022-10-19T00:42:28.452Z,0.00
2022-10-19T00:43:28.772Z,0.00
2022-10-19T00:44:30.096Z,0.00
2022-10-19T00:45:29.383Z,0.00
2022-10-19T00:46:29.728Z,0.00
2022-10-19T00:47:30.100Z,0.00
2022-10-19T00:48:30.300Z,0.00
2022-10-19T00:49:30.620Z,0.00
2022-10-19T00:50:30.920Z,0.00
2022-10-19T00:51:31.275Z,0.00
2022-10-19T00:52:31.884Z,0.00
2022-10-19T00:53:31.876Z,0.00
2022-10-19T00:54:32.211Z,0.00
2022-10-19T00:55:32.509Z,0.00
2022-10-19T00:56:32.784Z,0.00
2022-10-19T00:57:33.165Z,0.00
2022-10-19T00:58:33.479Z,0.00
2022-10-19T00:59:33.790Z,0.00
2022-10-19T01:00:34.177Z,0.00
2022-10-19T01:01:34.365Z,0.00
2022-10-19T01:02:35.024Z,0.00
2022-10-19T01:03:34.971Z,0.00
2022-10-19T01:04:35.169Z,0.00
2022-10-19T01:05:35.506Z,0.00
2022-10-19T01:06:35.837Z,0.00
2022-10-19T01:07:36.421Z,0.00
2022-10-19T01:08:36.465Z,0.00
2022-10-19T01:09:36.778Z,0.00
2022-10-19T01:10:37.081Z,0.00
2022-10-19T01:11:37.280Z,0.00
2022-10-19T01:12:37.480Z,0.00
2022-10-19T01:13:37.890Z,0.00
2022-10-19T01:14:38.104Z,0.00
2022-10-19T01:15:38.414Z,0.00
2022-10-19T01:16:38.643Z,0.00
2022-10-19T01:17:38.938Z,0.00
2022-10-19T01:18:39.235Z,0.00
2022-10-19T01:19:39.614Z,0.00
2022-10-19T01:20:39.964Z,0.00
2022-10-19T01:21:40.247Z,0.00
2022-10-19T01:22:40.638Z,0.00
2022-10-19T01:23:40.916Z,0.00
2022-10-19T01:24:41.080Z,0.00
2022-10-19T01:25:41.366Z,0.00
2022-10-19T01:26:41.677Z,0.00
2022-10-19T01:27:41.861Z,0.00
2022-10-19T01:28:42.239Z,0.00
2022-10-19T01:29:42.555Z,0.00
2022-10-19T01:30:42.756Z,0.00
2022-10-19T01:31:43.090Z,0.00
2022-10-19T01:32:43.291Z,0.00
2022-10-19T01:33:43.513Z,0.00
2022-10-19T01:34:43.877Z,0.00
2022-10-19T01:35:44.181Z,0.00
2022-10-19T01:36:44.527Z,0.00
2022-10-19T01:37:44.859Z,0.00
2022-10-19T01:38:45.242Z,0.00
2022-10-19T01:39:49.097Z,0.00
2022-10-19T01:40:45.795Z,0.00
2022-10-19T01:41:46.154Z,0.00
2022-10-19T01:42:46.503Z,0.00
2022-10-19T01:43:46.787Z,0.00
2022-10-19T01:44:47.156Z,0.00
2022-10-19T01:45:47.342Z,0.00
2022-10-19T01:46:47.729Z,0.00
2022-10-19T01:47:47.923Z,0.00
2022-10-19T01:48:48.259Z,0.00
2022-10-19T01:49:48.534Z,0.00
2022-10-19T01:50:48.837Z,0.00
2022-10-19T01:51:49.043Z,0.00
2022-10-19T01:52:49.238Z,0.00
2022-10-19T01:53:49.577Z,0.00
2022-10-19T01:54:49.947Z,0.00
2022-10-19T01:55:50.202Z,0.00
2022-10-19T01:56:50.514Z,0.00
2022-10-19T01:57:50.848Z,0.00
2022-10-19T01:58:51.147Z,0.00
2022-10-19T01:59:51.521Z,0.00
2022-10-19T02:00:51.960Z,0.00
2022-10-19T02:01:52.168Z,0.00
2022-10-19T02:02:52.407Z,0.00
2022-10-19T02:03:52.768Z,0.00
2022-10-19T02:04:52.942Z,0.00
2022-10-19T02:05:53.339Z,0.00
2022-10-19T02:06:53.562Z,0.00
2022-10-19T02:07:53.898Z,0.00
2022-10-19T02:08:54.174Z,0.00
2022-10-19T02:09:54.338Z,0.00
2022-10-19T02:10:54.712Z,0.00
2022-10-19T02:11:57.006Z,0.00
2022-10-19T02:12:55.236Z,0.00
2022-10-19T02:13:55.500Z,0.00
2022-10-19T02:14:55.885Z,0.00
2022-10-19T02:15:56.093Z,0.00
2022-10-19T02:16:56.432Z,0.00
2022-10-19T02:17:56.738Z,0.00
2022-10-19T02:18:57.115Z,0.00
2022-10-19T02:19:57.403Z,0.00
2022-10-19T02:20:57.708Z,0.00
2022-10-19T02:21:57.955Z,0.00
2022-10-19T02:22:58.331Z,0.00
2022-10-19T02:23:58.545Z,0.00
2022-10-19T02:24:58.881Z,0.00
2022-10-19T02:25:59.170Z,0.00
2022-10-19T02:26:59.517Z,0.00
2022-10-19T02:27:59.786Z,0.00
2022-10-19T02:28:59.970Z,0.00
2022-10-19T02:30:00.196Z,0.00
2022-10-19T02:31:00.419Z,0.00
2022-10-19T02:32:01.607Z,0.00
2022-10-19T02:33:01.128Z,0.00
2022-10-19T02:34:01.278Z,0.00
2022-10-19T02:35:01.711Z,0.00
2022-10-19T02:36:01.881Z,0.00
2022-10-19T02:37:02.185Z,0.00
2022-10-19T02:38:02.448Z,0.00
2022-10-19T02:39:02.626Z,0.00
2022-10-19T02:40:02.990Z,0.00
2022-10-19T02:41:03.319Z,0.00
2022-10-19T02:42:03.649Z,0.00
2022-10-19T02:43:03.911Z,0.00
2022-10-19T02:44:04.224Z,0.00
2022-10-19T02:45:04.472Z,0.00
2022-10-19T02:46:04.841Z,0.00
2022-10-19T02:47:05.165Z,0.00
2022-10-19T02:48:05.492Z,0.00
2022-10-19T02:49:05.799Z,0.00
2022-10-19T02:50:06.203Z,0.00
2022-10-19T02:51:06.531Z,0.00
2022-10-19T02:52:06.833Z,0.00
2022-10-19T02:53:07.218Z,0.00
2022-10-19T02:54:07.377Z,0.00
2022-10-19T02:55:07.740Z,0.00
2022-10-19T02:56:08.103Z,0.00
2022-10-19T02:57:08.377Z,0.00
2022-10-19T02:58:08.691Z,0.00
2022-10-19T02:59:08.939Z,0.00
2022-10-19T03:00:09.277Z,0.00
2022-10-19T03:01:09.589Z,0.00
2022-10-19T03:02:09.774Z,0.00
2022-10-19T03:03:10.118Z,0.00
2022-10-19T03:04:10.460Z,0.00
2022-10-19T03:05:10.716Z,0.00
2022-10-19T03:06:10.975Z,0.00
2022-10-19T03:07:11.296Z,0.00
2022-10-19T03:08:11.520Z,0.00
2022-10-19T03:09:11.789Z,0.00
2022-10-19T03:10:11.961Z,0.00
2022-10-19T03:11:12.339Z,0.00
2022-10-19T03:12:12.704Z,0.00
2022-10-19T03:13:12.965Z,0.00
2022-10-19T03:14:13.154Z,0.00
2022-10-19T03:15:13.522Z,0.00
2022-10-19T03:16:13.805Z,0.00
2022-10-19T03:17:14.068Z,0.00
2022-10-19T03:18:14.387Z,0.00
2022-10-19T03:19:14.665Z,0.00
2022-10-19T03:20:15.046Z,0.00
2022-10-19T03:21:15.275Z,0.00
2022-10-19T03:22:15.645Z,0.00
2022-10-19T03:23:15.842Z,0.00
2022-10-19T03:24:16.157Z,0.00
2022-10-19T03:25:16.500Z,0.00
2022-10-19T03:26:16.713Z,0.00
2022-10-19T03:27:17.089Z,0.00
2022-10-19T03:28:17.459Z,0.00
2022-10-19T03:29:17.670Z,0.00
2022-10-19T03:30:17.998Z,0.00
2022-10-19T03:31:18.321Z,0.00
2022-10-19T03:32:18.619Z,0.00
2022-10-19T03:33:19.044Z,0.00
2022-10-19T03:34:19.269Z,0.00
2022-10-19T03:35:19.620Z,0.00
2022-10-19T03:36:19.927Z,0.00
2022-10-19T03:37:20.267Z,0.00
2022-10-19T03:38:20.576Z,0.00
2022-10-19T03:39:21.760Z,0.00
2022-10-19T03:40:21.105Z,0.00
2022-10-19T03:41:21.389Z,0.00
2022-10-19T03:42:21.740Z,0.00
2022-10-19T03:43:22.072Z,0.00
2022-10-19T03:44:22.366Z,0.00
2022-10-19T03:45:22.681Z,0.00
2022-10-19T03:46:22.980Z,0.00
2022-10-19T03:47:23.325Z,0.00
2022-10-19T03:48:23.675Z,0.00
2022-10-19T03:49:23.907Z,0.00
2022-10-19T03:50:24.340Z,0.00
2022-10-19T03:51:24.595Z,0.00
2022-10-19T03:52:24.955Z,0.00
2022-10-19T03:53:25.251Z,0.00
2022-10-19T03:54:27.410Z,0.00
2022-10-19T03:55:25.827Z,0.00
2022-10-19T03:56:26.142Z,0.00
2022-10-19T03:57:26.489Z,0.00
2022-10-19T03:58:26.823Z,0.00
2022-10-19T03:59:27.029Z,0.00
2022-10-19T04:00:27.331Z,0.00
2022-10-19T04:01:27.659Z,0.00
2022-10-19T04:02:27.912Z,0.00
2022-10-19T04:03:28.241Z,0.00
2022-10-19T04:04:28.503Z,0.00
2022-10-19T04:05:28.877Z,0.00
2022-10-19T04:06:29.110Z,0.00
2022-10-19T04:07:29.442Z,0.00
2022-10-19T04:08:29.730Z,0.00
2022-10-19T04:09:30.082Z,0.00
2022-10-19T04:10:30.384Z,0.00
2022-10-19T04:11:30.759Z,0.00
2022-10-19T04:12:31.056Z,0.00
2022-10-19T04:13:31.343Z,0.00
2022-10-19T04:14:33.296Z,0.00
2022-10-19T04:15:32.939Z,0.00
2022-10-19T04:16:32.129Z,0.00
2022-10-19T04:17:32.857Z,0.00
2022-10-19T04:18:32.713Z,0.00
2022-10-19T04:19:33.026Z,0.00
2022-10-19T04:20:33.332Z,0.00
2022-10-19T04:21:33.627Z,0.00
2022-10-19T04:22:33.968Z,0.00
2022-10-19T04:23:34.260Z,0.00
2022-10-19T04:24:34.575Z,0.00
2022-10-19T04:25:34.885Z,0.00
2022-10-19T04:26:35.225Z,0.00
2022-10-19T04:27:35.814Z,0.00
2022-10-19T04:28:35.860Z,0.00
2022-10-19T04:29:36.087Z,0.00
2022-10-19T04:30:36.378Z,0.00
2022-10-19T04:31:36.619Z,0.00
2022-10-19T04:32:36.933Z,0.00
2022-10-19T04:33:37.256Z,0.00
2022-10-19T04:34:39.913Z,0.00
2022-10-19T04:35:37.669Z,0.00
2022-10-19T04:36:38.022Z,0.00
2022-10-19T04:37:38.345Z,0.00
2022-10-19T04:38:38.667Z,0.00
2022-10-19T04:39:38.983Z,0.00
2022-10-19T04:40:39.354Z,0.00
2022-10-19T04:41:39.620Z,0.00
2022-10-19T04:42:39.718Z,0.00
2022-10-19T04:43:40.031Z,0.00
2022-10-19T04:44:40.508Z,0.00
2022-10-19T04:45:40.656Z,0.00
2022-10-19T04:46:41.018Z,0.00
2022-10-19T04:47:41.319Z,0.00
2022-10-19T04:48:41.654Z,0.00
2022-10-19T04:49:41.955Z,0.00
2022-10-19T04:50:42.226Z,0.00
2022-10-19T04:51:42.493Z,0.00
2022-10-19T04:52:42.760Z,0.00
2022-10-19T04:53:43.140Z,0.00
2022-10-19T04:54:43.376Z,0.00
2022-10-19T04:55:43.730Z,0.00
2022-10-19T04:56:44.063Z,0.00
2022-10-19T04:57:44.318Z,0.00
2022-10-19T04:58:45.133Z,0.00
2022-10-19T04:59:44.848Z,0.00
2022-10-19T05:00:45.275Z,0.00
2022-10-19T05:01:47.256Z,0.00
2022-10-19T05:02:45.787Z,0.00
2022-10-19T05:03:46.048Z,0.00
2022-10-19T05:04:46.327Z,0.00
2022-10-19T05:05:46.626Z,0.00
2022-10-19T05:06:46.956Z,0.00
2022-10-19T05:07:47.178Z,0.00
2022-10-19T05:08:47.526Z,0.00
2022-10-19T05:09:47.755Z,0.00
2022-10-19T05:10:48.116Z,0.00
2022-10-19T05:11:48.834Z,0.00
2022-10-19T05:12:48.691Z,0.00
2022-10-19T05:13:48.986Z,0.00
2022-10-19T05:14:49.322Z,0.00
2022-10-19T05:15:49.596Z,0.00
2022-10-19T05:16:50.217Z,0.00
2022-10-19T05:17:50.199Z,0.00
2022-10-19T05:18:50.499Z,0.00
2022-10-19T05:19:50.776Z,0.00
2022-10-19T05:20:51.017Z,0.00
2022-10-19T05:21:51.387Z,0.00
2022-10-19T05:22:51.609Z,0.00
2022-10-19T05:23:52.820Z,0.00
2022-10-19T05:24:54.572Z,0.00
2022-10-19T05:25:53.526Z,0.00
2022-10-19T05:26:52.864Z,0.00
2022-10-19T05:27:53.122Z,0.00
2022-10-19T05:28:53.491Z,0.00
2022-10-19T05:29:53.670Z,0.00
2022-10-19T05:30:53.963Z,0.00
2022-10-19T05:31:54.280Z,0.00
2022-10-19T05:32:54.416Z,0.00
2022-10-19T05:33:54.707Z,0.00
2022-10-19T05:34:54.913Z,0.00
2022-10-19T05:35:55.136Z,0.00
2022-10-19T05:36:55.530Z,0.00
2022-10-19T05:37:55.808Z,0.00
2022-10-19T05:38:56.064Z,0.00
2022-10-19T05:39:56.319Z,0.00
2022-10-19T05:40:56.549Z,0.00
2022-10-19T05:41:56.804Z,0.00
2022-10-19T05:42:57.041Z,0.00
2022-10-19T05:43:57.267Z,0.00
2022-10-19T05:44:57.551Z,0.00
2022-10-19T05:45:57.835Z,0.00
2022-10-19T05:46:58.124Z,0.00
2022-10-19T05:47:58.318Z,0.00
2022-10-19T05:48:58.589Z,0.00
2022-10-19T05:49:58.875Z,0.00
2022-10-19T05:50:59.075Z,0.00
2022-10-19T05:51:59.373Z,0.00
2022-10-19T05:52:59.562Z,0.00
2022-10-19T05:53:59.828Z,0.00
2022-10-19T05:55:00.100Z,0.00
2022-10-19T05:56:00.341Z,0.00
2022-10-19T05:57:00.702Z,0.00
2022-10-19T05:58:00.896Z,0.00
2022-10-19T05:59:01.132Z,0.00
2022-10-19T06:00:01.412Z,0.00
2022-10-19T06:01:01.667Z,0.00
2022-10-19T06:02:02.007Z,0.00
2022-10-19T06:03:02.247Z,0.00
2022-10-19T06:04:02.512Z,0.00
2022-10-19T06:05:02.805Z,0.00
2022-10-19T06:06:03.059Z,0.00
2022-10-19T06:07:03.424Z,0.00
2022-10-19T06:08:03.635Z,0.00
2022-10-19T06:09:03.888Z,0.00
2022-10-19T06:10:05.043Z,0.00
2022-10-19T06:11:04.391Z,0.00
2022-10-19T06:12:04.783Z,0.00
2022-10-19T06:13:04.962Z,0.00
2022-10-19T06:14:05.219Z,0.00
2022-10-19T06:15:05.828Z,0.00
2022-10-19T06:16:05.822Z,0.00
2022-10-19T06:17:06.117Z,0.00
2022-10-19T06:18:06.368Z,0.00
2022-10-19T06:19:06.644Z,0.00
2022-10-19T06:20:08.179Z,0.00
2022-10-19T06:21:08.633Z,0.00
2022-10-19T06:22:07.489Z,0.00
2022-10-19T06:23:07.939Z,0.00
2022-10-19T06:24:08.419Z,0.00
2022-10-19T06:25:08.268Z,0.00
2022-10-19T06:26:08.510Z,0.00
2022-10-19T06:27:09.202Z,0.00
2022-10-19T06:28:09.099Z,0.00
2022-10-19T06:29:09.354Z,0.00
2022-10-19T06:30:09.626Z,5.62
2022-10-19T06:31:09.936Z,5.62
2022-10-19T06:32:10.278Z,5.62
2022-10-19T06:33:10.564Z,5.62
2022-10-19T06:34:10.820Z,5.62
2022-10-19T06:35:11.117Z,5.62
2022-10-19T06:36:11.321Z,5.62
2022-10-19T06:37:11.614Z,5.62
2022-10-19T06:38:11.868Z,5.62
2022-10-19T06:39:12.208Z,5.62
2022-10-19T06:40:12.480Z,5.62
2022-10-19T06:41:12.763Z,5.62
2022-10-19T06:42:13.020Z,5.62
2022-10-19T06:43:13.277Z,11.25
2022-10-19T06:44:13.556Z,11.25
2022-10-19T06:45:13.858Z,5.62
2022-10-19T06:46:14.119Z,5.62
2022-10-19T06:47:14.354Z,5.62
2022-10-19T06:48:14.699Z,5.62
2022-10-19T06:49:14.893Z,5.62
2022-10-19T06:50:15.205Z,5.62
2022-10-19T06:51:15.461Z,5.62
2022-10-19T06:52:15.688Z,5.62
2022-10-19T06:53:15.958Z,5.62
2022-10-19T06:54:16.262Z,5.62
2022-10-19T06:55:17.562Z,5.62
2022-10-19T06:56:16.823Z,11.25
2022-10-19T06:57:17.110Z,11.25
2022-10-19T06:58:17.375Z,11.25
2022-10-19T06:59:17.634Z,11.25
2022-10-19T07:00:17.922Z,11.25
2022-10-19T07:01:18.231Z,11.25
2022-10-19T07:02:18.528Z,11.25
2022-10-19T07:03:18.785Z,16.88
2022-10-19T07:04:19.044Z,16.88
2022-10-19T07:05:19.320Z,16.88
2022-10-19T07:06:19.608Z,22.50
2022-10-19T07:07:19.851Z,22.50
2022-10-19T07:08:20.100Z,16.88
2022-10-19T07:09:20.351Z,16.88
2022-10-19T07:10:20.648Z,16.88
2022-10-19T07:11:20.940Z,16.88
2022-10-19T07:12:21.248Z,22.50
2022-10-19T07:13:21.464Z,22.50
2022-10-19T07:14:21.715Z,22.50
2022-10-19T07:15:22.008Z,22.50
2022-10-19T07:16:22.283Z,28.12
2022-10-19T07:17:22.560Z,22.50
2022-10-19T07:18:22.870Z,22.50
2022-10-19T07:19:23.083Z,22.50
2022-10-19T07:20:23.401Z,22.50
2022-10-19T07:21:23.681Z,22.50
2022-10-19T07:22:27.922Z,28.12
2022-10-19T07:23:24.292Z,22.50
2022-10-19T07:24:24.539Z,22.50
2022-10-19T07:25:24.764Z,16.88
2022-10-19T07:26:25.085Z,16.88
2022-10-19T07:27:26.016Z,16.88
2022-10-19T07:28:25.597Z,16.88
2022-10-19T07:29:25.860Z,11.25
2022-10-19T07:30:26.132Z,11.25
2022-10-19T07:31:26.452Z,16.88
2022-10-19T07:32:26.756Z,28.12
2022-10-19T07:33:27.058Z,22.50
2022-10-19T07:34:29.022Z,22.50
2022-10-19T07:35:27.570Z,22.50
2022-10-19T07:36:27.872Z,22.50
2022-10-19T07:37:28.121Z,22.50
2022-10-19T07:38:28.439Z,22.50
2022-10-19T07:39:28.696Z,22.50
2022-10-19T07:40:28.959Z,22.50
2022-10-19T07:41:29.220Z,22.50
2022-10-19T07:42:29.475Z,22.50
2022-10-19T07:43:29.723Z,28.12
2022-10-19T07:44:30.027Z,16.88
2022-10-19T07:45:30.289Z,16.88
2022-10-19T07:46:30.609Z,16.88
2022-10-19T07:47:30.928Z,22.50
2022-10-19T07:48:31.154Z,22.50
2022-10-19T07:49:31.400Z,28.12
2022-10-19T07:50:31.693Z,33.75
2022-10-19T07:51:31.976Z,39.38
2022-10-19T07:52:35.932Z,39.38
2022-10-19T07:53:32.506Z,28.12
2022-10-19T07:54:32.779Z,28.12
2022-10-19T07:55:33.038Z,22.50
2022-10-19T07:56:33.302Z,16.88
2022-10-19T07:57:33.653Z,16.88
2022-10-19T07:58:33.924Z,22.50
2022-10-19T07:59:34.176Z,22.50
2022-10-19T08:00:34.518Z,28.12
2022-10-19T08:01:34.722Z,28.12
2022-10-19T08:02:45.850Z,33.75
2022-10-19T08:04:31.779Z,28.12
2022-10-19T08:04:59.421Z,28.12
2022-10-19T08:05:36.806Z,22.50
2022-10-19T08:06:36.064Z,28.12
2022-10-19T08:07:36.334Z,28.12
2022-10-19T08:08:36.677Z,22.50
2022-10-19T08:09:53.849Z,22.50
2022-10-19T08:10:38.209Z,22.50
2022-10-19T08:11:37.386Z,28.12
2022-10-19T08:12:37.739Z,28.12
2022-10-19T08:13:37.939Z,22.50
2022-10-19T08:14:38.192Z,22.50
2022-10-19T08:15:38.436Z,28.12
2022-10-19T08:16:38.683Z,28.12
2022-10-19T08:17:38.980Z,33.75
2022-10-19T08:18:39.266Z,28.12
2022-10-19T08:19:39.540Z,28.12
2022-10-19T08:20:39.843Z,22.50
2022-10-19T08:21:40.089Z,22.50
2022-10-19T08:22:40.388Z,22.50
2022-10-19T08:23:40.702Z,22.50
2022-10-19T08:24:40.925Z,22.50
2022-10-19T08:25:41.167Z,22.50
2022-10-19T08:26:41.461Z,16.88
2022-10-19T08:27:41.729Z,16.88
2022-10-19T08:28:42.018Z,22.50
2022-10-19T08:29:42.291Z,22.50
2022-10-19T08:30:42.540Z,22.50
2022-10-19T08:31:42.834Z,28.12
2022-10-19T08:32:43.125Z,22.50
2022-10-19T08:33:43.430Z,22.50
2022-10-19T08:34:43.693Z,22.50
2022-10-19T08:35:43.931Z,22.50
2022-10-19T08:36:44.348Z,22.50
2022-10-19T08:37:45.735Z,22.50
2022-10-19T08:38:44.747Z,22.50
2022-10-19T08:39:45.072Z,22.50
2022-10-19T08:40:45.326Z,22.50
2022-10-19T08:41:45.585Z,22.50
2022-10-19T08:42:45.886Z,22.50
2022-10-19T08:43:46.202Z,28.12
2022-10-19T08:44:46.422Z,28.12
2022-10-19T08:45:46.758Z,39.38
2022-10-19T08:46:46.983Z,45.00
2022-10-19T08:47:47.245Z,56.25
2022-10-19T08:48:47.525Z,73.12
2022-10-19T08:49:47.791Z,78.75
2022-10-19T08:50:48.081Z,78.75
2022-10-19T08:51:48.358Z,73.12
2022-10-19T08:52:48.619Z,67.50
2022-10-19T08:53:48.903Z,61.88
2022-10-19T08:54:49.193Z,61.88
2022-10-19T08:55:49.522Z,67.50
2022-10-19T08:56:51.805Z,67.50
2022-10-19T08:57:50.050Z,67.50
2022-10-19T08:58:50.286Z,67.50
2022-10-19T08:59:50.582Z,67.50
2022-10-19T09:00:50.912Z,67.50
2022-10-19T09:01:51.129Z,67.50
2022-10-19T09:02:51.453Z,61.88
2022-10-19T09:03:56.186Z,61.88
2022-10-19T09:04:51.905Z,61.88
2022-10-19T09:05:52.272Z,56.25
2022-10-19T09:06:52.528Z,56.25
2022-10-19T09:07:53.061Z,50.62
2022-10-19T09:08:53.279Z,50.62
2022-10-19T09:09:53.367Z,50.62
2022-10-19T09:10:53.672Z,50.62
2022-10-19T09:11:53.920Z,45.00
2022-10-19T09:12:57.713Z,45.00
2022-10-19T09:14:04.632Z,45.00
2022-10-19T09:14:55.824Z,45.00
2022-10-19T09:15:54.982Z,39.38
2022-10-19T09:16:55.233Z,39.38
2022-10-19T09:17:55.556Z,33.75
2022-10-19T09:18:55.862Z,28.12
2022-10-19T09:19:56.057Z,28.12
2022-10-19T09:20:56.344Z,22.50
2022-10-19T09:21:56.583Z,22.50
2022-10-19T09:22:56.840Z,28.12
2022-10-19T09:23:57.175Z,28.12
2022-10-19T09:24:57.425Z,33.75
2022-10-19T09:25:57.706Z,39.38
2022-10-19T09:26:57.976Z,61.88
2022-10-19T09:27:58.284Z,90.00
2022-10-19T09:28:58.574Z,101.25
2022-10-19T09:29:58.871Z,90.00
2022-10-19T09:30:59.097Z,95.62
2022-10-19T09:32:59.784Z,78.75
2022-10-19T09:34:00.055Z,67.50
2022-10-19T09:35:00.330Z,73.12
2022-10-19T09:36:00.603Z,73.12
2022-10-19T09:37:00.959Z,61.88
2022-10-19T09:38:01.271Z,50.62
2022-10-19T09:39:01.472Z,45.00
2022-10-19T09:40:01.762Z,39.38
2022-10-19T09:41:02.066Z,39.38
2022-10-19T09:42:02.287Z,45.00
2022-10-19T09:43:02.545Z,39.38
2022-10-19T09:44:02.840Z,33.75
2022-10-19T09:45:03.127Z,33.75
2022-10-19T09:46:07.747Z,33.75
2022-10-19T09:47:05.262Z,33.75
2022-10-19T09:48:07.245Z,39.38
2022-10-19T09:49:05.274Z,39.38
2022-10-19T09:50:04.585Z,39.38
2022-10-19T09:51:04.877Z,39.38
2022-10-19T09:52:05.140Z,39.38
2022-10-19T09:53:05.384Z,39.38
2022-10-19T09:54:05.680Z,39.38
2022-10-19T09:55:05.970Z,39.38
2022-10-19T09:56:06.282Z,33.75
2022-10-19T09:57:06.545Z,33.75
2022-10-19T09:58:06.806Z,33.75
2022-10-19T09:59:07.075Z,33.75
2022-10-19T10:00:07.430Z,28.12
2022-10-19T10:01:07.661Z,33.75
2022-10-19T10:02:07.956Z,33.75
2022-10-19T10:03:08.240Z,39.38
2022-10-19T10:04:09.386Z,45.00
2022-10-19T10:05:08.759Z,45.00
2022-10-19T10:06:09.069Z,39.38
2022-10-19T10:07:09.309Z,39.38
2022-10-19T10:08:09.606Z,33.75
2022-10-19T10:09:09.956Z,33.75
2022-10-19T10:10:10.151Z,45.00
2022-10-19T10:11:10.422Z,56.25
2022-10-19T10:12:10.679Z,95.62
2022-10-19T10:13:10.960Z,135.00
2022-10-19T10:14:11.229Z,129.38
2022-10-19T10:15:11.505Z,140.62
2022-10-19T10:16:12.218Z,140.62
2022-10-19T10:17:12.109Z,123.75
2022-10-19T10:18:12.353Z,123.75
2022-10-19T10:19:13.114Z,146.25
2022-10-19T10:20:12.877Z,123.75
2022-10-19T10:21:13.152Z,106.88
2022-10-19T10:22:13.496Z,101.25
2022-10-19T10:23:13.704Z,101.25
2022-10-19T10:24:13.941Z,95.62
2022-10-19T10:25:14.242Z,123.75
2022-10-19T10:26:14.459Z,112.50
2022-10-19T10:27:14.732Z,101.25
2022-10-19T10:28:14.965Z,90.00
2022-10-19T10:29:15.521Z,78.75
2022-10-19T10:30:15.521Z,67.50
2022-10-19T10:31:15.761Z,61.88
2022-10-19T10:32:16.041Z,61.88
2022-10-19T10:33:27.332Z,73.12
2022-10-19T10:34:23.170Z,73.12
2022-10-19T10:35:17.925Z,67.50
2022-10-19T10:36:17.195Z,67.50
2022-10-19T10:37:17.498Z,73.12
2022-10-19T10:38:18.021Z,61.88
2022-10-19T10:39:18.056Z,73.12
2022-10-19T10:40:23.282Z,56.25
2022-10-19T10:41:18.570Z,56.25
2022-10-19T10:42:18.969Z,45.00
2022-10-19T10:43:19.185Z,39.38
2022-10-19T10:44:19.505Z,39.38
2022-10-19T10:45:19.697Z,45.00
2022-10-19T10:46:19.986Z,56.25
2022-10-19T10:47:20.292Z,95.62
2022-10-19T10:48:20.508Z,101.25
2022-10-19T10:49:20.763Z,202.50
2022-10-19T10:50:21.035Z,219.38
2022-10-19T10:51:21.289Z,241.88
2022-10-19T10:52:21.604Z,241.88
2022-10-19T10:53:21.871Z,585.00
2022-10-19T10:54:22.234Z,1085.62
2022-10-19T10:55:22.446Z,1029.38
2022-10-19T10:56:22.742Z,1029.38
2022-10-19T10:58:25.558Z,630.00
2022-10-19T10:59:24.490Z,315.00
2022-10-19T11:00:23.848Z,326.25
2022-10-19T11:01:24.134Z,101.25
2022-10-19T11:03:24.633Z,236.25
2022-10-19T11:04:24.928Z,646.88
2022-10-19T11:05:25.258Z,365.62
2022-10-19T11:06:25.453Z,450.00
2022-10-19T11:07:25.694Z,129.38
2022-10-19T11:08:26.031Z,73.12
2022-10-19T11:09:26.272Z,73.12
2022-10-19T11:10:26.865Z,168.75
2022-10-19T11:11:26.836Z,129.38
2022-10-19T11:12:29.524Z,90.00
2022-10-19T11:13:27.367Z,129.38
2022-10-19T11:14:27.675Z,163.12
2022-10-19T11:15:27.883Z,585.00
2022-10-19T11:16:28.173Z,956.25
2022-10-19T11:17:28.444Z,810.00
2022-10-19T11:18:28.711Z,286.88
2022-10-19T11:19:28.948Z,984.38
2022-10-19T11:20:29.224Z,911.25
2022-10-19T11:21:29.533Z,219.38
2022-10-19T11:22:29.788Z,146.25
2022-10-19T11:23:30.055Z,90.00
2022-10-19T11:25:30.649Z,230.62
2022-10-19T11:26:30.870Z,185.62
2022-10-19T11:27:31.158Z,196.88
2022-10-19T11:28:31.424Z,860.62
2022-10-19T11:29:31.682Z,112.50
2022-10-19T11:30:32.354Z,84.38
2022-10-19T11:31:32.246Z,123.75
2022-10-19T11:32:32.951Z,123.75
2022-10-19T11:33:32.727Z,78.75
2022-10-19T11:34:32.982Z,61.88
2022-10-19T11:35:33.263Z,50.62
2022-10-19T11:36:33.473Z,61.88
2022-10-19T11:37:34.112Z,90.00
2022-10-19T11:38:34.147Z,50.62
2022-10-19T11:39:34.409Z,61.88
2022-10-19T11:40:34.689Z,106.88
2022-10-19T11:41:34.883Z,129.38
2022-10-19T11:42:35.172Z,90.00
2022-10-19T11:43:35.395Z,95.62
2022-10-19T11:44:35.611Z,61.88
2022-10-19T11:45:35.874Z,61.88
2022-10-19T11:46:36.111Z,50.62
2022-10-19T11:47:36.629Z,50.62
2022-10-19T11:48:39.337Z,45.00
2022-10-19T11:49:37.976Z,50.62
2022-10-19T11:50:37.319Z,45.00
2022-10-19T11:51:37.554Z,33.75
2022-10-19T11:52:37.894Z,33.75
2022-10-19T11:53:38.062Z,33.75
2022-10-19T11:54:38.303Z,33.75
2022-10-19T11:55:38.633Z,33.75
2022-10-19T11:56:58.174Z,39.38
2022-10-19T11:57:40.094Z,45.00
2022-10-19T11:58:39.369Z,50.62
2022-10-19T11:59:39.680Z,45.00
2022-10-19T12:00:40.198Z,45.00
2022-10-19T12:01:40.323Z,39.38
2022-10-19T12:02:40.464Z,39.38
2022-10-19T12:03:40.853Z,45.00
2022-10-19T12:04:41.079Z,50.62
2022-10-19T12:05:41.354Z,56.25
2022-10-19T12:06:41.650Z,45.00
2022-10-19T12:07:41.875Z,39.38
2022-10-19T12:08:42.272Z,45.00
2022-10-19T12:09:42.458Z,50.62
2022-10-19T12:10:42.824Z,56.25
2022-10-19T12:11:43.146Z,56.25
2022-10-19T12:12:43.354Z,56.25
2022-10-19T12:13:43.634Z,50.62
2022-10-19T12:14:43.860Z,45.00
2022-10-19T12:15:45.033Z,50.62
2022-10-19T12:16:44.524Z,56.25
2022-10-19T12:17:44.818Z,45.00
2022-10-19T12:18:45.107Z,39.38
2022-10-19T12:19:45.348Z,45.00
2022-10-19T12:20:45.606Z,45.00
2022-10-19T12:21:45.869Z,39.38
2022-10-19T12:22:46.175Z,39.38
2022-10-19T12:23:46.387Z,39.38
2022-10-19T12:24:46.618Z,45.00
2022-10-19T12:25:46.854Z,50.62
2022-10-19T12:26:47.172Z,61.88
2022-10-19T12:27:47.423Z,73.12
2022-10-19T12:28:47.702Z,67.50
2022-10-19T12:29:47.976Z,67.50
2022-10-19T12:30:48.314Z,67.50
2022-10-19T12:31:48.531Z,56.25
2022-10-19T12:32:53.411Z,50.62
2022-10-19T12:33:50.051Z,39.38
2022-10-19T12:34:49.286Z,33.75
2022-10-19T12:35:49.665Z,28.12
2022-10-19T12:36:49.895Z,28.12
2022-10-19T12:37:50.102Z,28.12
2022-10-19T12:38:50.950Z,28.12
2022-10-19T12:39:51.738Z,28.12
2022-10-19T12:40:50.958Z,28.12
2022-10-19T12:41:51.354Z,28.12
2022-10-19T12:42:51.582Z,33.75
2022-10-19T12:43:51.928Z,33.75
2022-10-19T12:44:54.951Z,39.38
2022-10-19T12:45:53.456Z,50.62
2022-10-19T12:46:53.742Z,56.25
2022-10-19T12:47:53.050Z,61.88
2022-10-19T12:48:53.309Z,61.88
2022-10-19T12:49:53.616Z,56.25
2022-10-19T12:50:53.889Z,50.62
2022-10-19T12:51:54.092Z,50.62
2022-10-19T12:52:54.319Z,56.25
2022-10-19T12:53:54.625Z,56.25
2022-10-19T12:54:54.896Z,56.25
2022-10-19T12:55:55.178Z,56.25
2022-10-19T12:56:55.437Z,50.62
2022-10-19T12:57:55.657Z,50.62
2022-10-19T12:58:55.988Z,50.62
2022-10-19T12:59:56.361Z,50.62
2022-10-19T13:00:56.649Z,50.62
2022-10-19T13:01:56.859Z,45.00
2022-10-19T13:02:57.097Z,39.38
2022-10-19T13:03:57.372Z,33.75
2022-10-19T13:04:57.616Z,28.12
2022-10-19T13:05:58.036Z,28.12
2022-10-19T13:06:58.435Z,28.12
2022-10-19T13:07:58.611Z,28.12
2022-10-19T13:08:59.808Z,33.75
2022-10-19T13:09:59.071Z,33.75
2022-10-19T13:10:59.350Z,39.38
2022-10-19T13:11:59.596Z,39.38